sensor_id;sensor_type;location;lat;lon;timestamp;pressure;altitude;pressure_sealevel;temperature;humidity
51099;BME280;37146;48.210;16.234;2023-04-26T00:01:10;98528.50;;;7.31;91.54
51099;BME280;37146;48.210;16.234;2023-04-26T00:03:35;98524.97;;;7.31;92.40
51099;BME280;37146;48.210;16.234;2023-04-26T00:06:01;98535.78;;;7.27;92.06
51099;BME280;37146;48.210;16.234;2023-04-26T00:08:29;98530.84;;;7.18;93.11
51099;BME280;37146;48.210;16.234;2023-04-26T00:10:54;98536.88;;;7.03;95.37
51099;BME280;37146;48.210;16.234;2023-04-26T00:13:20;98536.47;;;7.12;94.33
51099;BME280;37146;48.210;16.234;2023-04-26T00:15:45;98539.97;;;7.12;95.34
51099;BME280;37146;48.210;16.234;2023-04-26T00:18:10;98531.66;;;7.20;95.23
51099;BME280;37146;48.210;16.234;2023-04-26T00:20:36;98538.09;;;7.15;95.36
51099;BME280;37146;48.210;16.234;2023-04-26T00:23:02;98532.75;;;7.16;97.14
51099;BME280;37146;48.210;16.234;2023-04-26T00:25:28;98534.84;;;7.08;98.44
51099;BME280;37146;48.210;16.234;2023-04-26T00:27:53;98533.13;;;7.07;96.72
51099;BME280;37146;48.210;16.234;2023-04-26T00:30:18;98536.38;;;6.94;92.37
51099;BME280;37146;48.210;16.234;2023-04-26T00:32:44;98545.19;;;6.95;94.03
51099;BME280;37146;48.210;16.234;2023-04-26T00:35:11;98550.38;;;6.98;94.30
51099;BME280;37146;48.210;16.234;2023-04-26T00:37:36;98550.38;;;6.98;91.91
51099;BME280;37146;48.210;16.234;2023-04-26T00:40:01;98549.25;;;7.04;90.30
51099;BME280;37146;48.210;16.234;2023-04-26T00:42:26;98549.44;;;6.99;89.83
51099;BME280;37146;48.210;16.234;2023-04-26T00:44:52;98551.44;;;6.94;89.66
51099;BME280;37146;48.210;16.234;2023-04-26T00:47:21;98547.03;;;6.93;88.54
51099;BME280;37146;48.210;16.234;2023-04-26T00:49:46;98549.78;;;6.91;86.52
51099;BME280;37146;48.210;16.234;2023-04-26T00:52:11;98555.34;;;6.85;88.65
51099;BME280;37146;48.210;16.234;2023-04-26T00:54:37;98551.66;;;6.89;87.15
51099;BME280;37146;48.210;16.234;2023-04-26T00:57:02;98552.06;;;6.80;87.01
51099;BME280;37146;48.210;16.234;2023-04-26T00:59:27;98545.59;;;6.86;85.64
51099;BME280;37146;48.210;16.234;2023-04-26T01:01:53;98541.28;;;6.83;85.95
51099;BME280;37146;48.210;16.234;2023-04-26T01:04:18;98548.06;;;6.90;83.96
51099;BME280;37146;48.210;16.234;2023-04-26T01:06:43;98549.50;;;6.97;84.18
51099;BME280;37146;48.210;16.234;2023-04-26T01:09:09;98545.13;;;6.96;84.76
51099;BME280;37146;48.210;16.234;2023-04-26T01:11:36;98553.28;;;6.92;85.11
51099;BME280;37146;48.210;16.234;2023-04-26T01:14:02;98545.59;;;6.86;84.68
51099;BME280;37146;48.210;16.234;2023-04-26T01:16:29;98539.56;;;6.82;84.24
51099;BME280;37146;48.210;16.234;2023-04-26T01:18:54;98543.56;;;6.72;86.68
51099;BME280;37146;48.210;16.234;2023-04-26T01:21:21;98549.00;;;6.69;85.21
51099;BME280;37146;48.210;16.234;2023-04-26T01:23:50;98553.22;;;6.73;84.55
51099;BME280;37146;48.210;16.234;2023-04-26T01:26:15;98552.31;;;6.74;85.64
51099;BME280;37146;48.210;16.234;2023-04-26T01:28:41;98552.59;;;6.68;84.48
51099;BME280;37146;48.210;16.234;2023-04-26T01:31:06;98556.91;;;6.70;84.26
51099;BME280;37146;48.210;16.234;2023-04-26T01:33:31;98563.22;;;6.68;80.75
51099;BME280;37146;48.210;16.234;2023-04-26T01:35:56;98557.56;;;6.75;84.12
51099;BME280;37146;48.210;16.234;2023-04-26T01:38:22;98567.72;;;6.65;83.52
51099;BME280;37146;48.210;16.234;2023-04-26T01:40:47;98560.28;;;6.74;81.93
51099;BME280;37146;48.210;16.234;2023-04-26T01:43:12;98569.97;;;6.75;81.28
51099;BME280;37146;48.210;16.234;2023-04-26T01:45:39;98562.00;;;6.75;82.38
51099;BME280;37146;48.210;16.234;2023-04-26T02:09:49;98572.59;;;6.33;85.45
51099;BME280;37146;48.210;16.234;2023-04-26T02:12:14;98578.91;;;6.31;85.78
51099;BME280;37146;48.210;16.234;2023-04-26T02:14:39;98575.88;;;6.18;88.19
51099;BME280;37146;48.210;16.234;2023-04-26T02:17:05;98582.06;;;6.18;86.77
51099;BME280;37146;48.210;16.234;2023-04-26T02:19:30;98587.97;;;5.81;87.08
51099;BME280;37146;48.210;16.234;2023-04-26T02:21:56;98586.44;;;5.73;88.60
51099;BME280;37146;48.210;16.234;2023-04-26T02:24:25;98581.34;;;5.91;87.98
51099;BME280;37146;48.210;16.234;2023-04-26T02:26:50;98574.56;;;5.84;87.33
51099;BME280;37146;48.210;16.234;2023-04-26T02:29:17;98584.97;;;5.66;89.76
51099;BME280;37146;48.210;16.234;2023-04-26T02:31:42;98584.13;;;5.66;87.55
51099;BME280;37146;48.210;16.234;2023-04-26T02:34:07;98587.50;;;5.46;88.79
51099;BME280;37146;48.210;16.234;2023-04-26T02:36:32;98597.13;;;5.48;90.24
51099;BME280;37146;48.210;16.234;2023-04-26T02:38:58;98590.06;;;5.49;89.18
51099;BME280;37146;48.210;16.234;2023-04-26T02:41:23;98594.56;;;5.47;89.30
51099;BME280;37146;48.210;16.234;2023-04-26T02:43:49;98596.84;;;5.32;90.30
51099;BME280;37146;48.210;16.234;2023-04-26T02:46:14;98596.09;;;5.29;89.99
51099;BME280;37146;48.210;16.234;2023-04-26T02:48:39;98603.94;;;5.32;90.43
51099;BME280;37146;48.210;16.234;2023-04-26T02:51:05;98598.09;;;5.22;90.19
51099;BME280;37146;48.210;16.234;2023-04-26T02:53:30;98593.25;;;5.09;90.55
51099;BME280;37146;48.210;16.234;2023-04-26T02:55:55;98586.50;;;5.01;91.12
51099;BME280;37146;48.210;16.234;2023-04-26T02:58:20;98592.56;;;5.04;91.16
51099;BME280;37146;48.210;16.234;2023-04-26T03:00:46;98594.50;;;4.99;89.59
51099;BME280;37146;48.210;16.234;2023-04-26T03:03:14;98598.63;;;5.08;90.78
51099;BME280;37146;48.210;16.234;2023-04-26T03:05:41;98601.69;;;5.21;91.10
51099;BME280;37146;48.210;16.234;2023-04-26T03:08:06;98599.38;;;5.11;91.10
51099;BME280;37146;48.210;16.234;2023-04-26T03:10:32;98601.94;;;5.13;92.33
51099;BME280;37146;48.210;16.234;2023-04-26T03:12:57;98596.22;;;5.00;91.68
51099;BME280;37146;48.210;16.234;2023-04-26T03:15:22;98592.13;;;5.17;92.20
51099;BME280;37146;48.210;16.234;2023-04-26T03:17:47;98587.38;;;5.01;93.36
51099;BME280;37146;48.210;16.234;2023-04-26T03:20:13;98593.97;;;5.15;92.83
51099;BME280;37146;48.210;16.234;2023-04-26T03:22:38;98591.03;;;4.97;91.98
51099;BME280;37146;48.210;16.234;2023-04-26T03:25:03;98589.09;;;5.02;92.71
51099;BME280;37146;48.210;16.234;2023-04-26T03:27:29;98589.16;;;5.01;94.46
51099;BME280;37146;48.210;16.234;2023-04-26T03:29:54;98593.25;;;5.09;94.97
51099;BME280;37146;48.210;16.234;2023-04-26T03:32:20;98598.19;;;4.95;94.44
51099;BME280;37146;48.210;16.234;2023-04-26T03:34:45;98599.53;;;5.07;95.13
51099;BME280;37146;48.210;16.234;2023-04-26T03:37:12;98601.63;;;4.97;95.98
51099;BME280;37146;48.210;16.234;2023-04-26T03:39:38;98616.16;;;5.12;95.63
51099;BME280;37146;48.210;16.234;2023-04-26T03:42:03;98617.66;;;4.94;97.07
51099;BME280;37146;48.210;16.234;2023-04-26T03:44:28;98614.78;;;5.00;96.71
51099;BME280;37146;48.210;16.234;2023-04-26T03:46:53;98617.53;;;4.97;96.08
51099;BME280;37146;48.210;16.234;2023-04-26T03:49:19;98616.19;;;4.85;97.91
51099;BME280;37146;48.210;16.234;2023-04-26T03:51:44;98619.91;;;5.05;98.19
51099;BME280;37146;48.210;16.234;2023-04-26T03:54:09;98618.03;;;5.08;97.91
51099;BME280;37146;48.210;16.234;2023-04-26T03:56:35;98613.97;;;4.98;96.90
51099;BME280;37146;48.210;16.234;2023-04-26T03:59:00;98619.41;;;4.95;96.83
51099;BME280;37146;48.210;16.234;2023-04-26T04:01:26;98623.94;;;5.17;96.99
51099;BME280;37146;48.210;16.234;2023-04-26T04:03:51;98626.13;;;5.04;96.81
51099;BME280;37146;48.210;16.234;2023-04-26T04:06:16;98624.25;;;5.07;95.74
51099;BME280;37146;48.210;16.234;2023-04-26T04:08:42;98621.75;;;5.03;95.17
51099;BME280;37146;48.210;16.234;2023-04-26T04:11:07;98634.00;;;5.07;95.17
51099;BME280;37146;48.210;16.234;2023-04-26T04:13:32;98640.38;;;5.01;96.24
51099;BME280;37146;48.210;16.234;2023-04-26T04:15:57;98642.38;;;4.94;96.08
51099;BME280;37146;48.210;16.234;2023-04-26T04:18:23;98645.09;;;4.93;96.34
51099;BME280;37146;48.210;16.234;2023-04-26T04:20:48;98647.31;;;5.05;97.51
51099;BME280;37146;48.210;16.234;2023-04-26T04:23:14;98648.09;;;5.07;95.34
51099;BME280;37146;48.210;16.234;2023-04-26T04:25:39;98642.22;;;4.99;94.40
51099;BME280;37146;48.210;16.234;2023-04-26T04:28:05;98648.59;;;5.19;93.75
51099;BME280;37146;48.210;16.234;2023-04-26T04:30:30;98649.34;;;4.97;95.44
51099;BME280;37146;48.210;16.234;2023-04-26T04:32:56;98651.50;;;4.86;94.43
51099;BME280;37146;48.210;16.234;2023-04-26T04:35:23;98643.59;;;4.84;95.18
51099;BME280;37146;48.210;16.234;2023-04-26T04:37:52;98651.19;;;4.95;95.74
51099;BME280;37146;48.210;16.234;2023-04-26T04:40:17;98657.78;;;5.08;94.74
51099;BME280;37146;48.210;16.234;2023-04-26T04:42:42;98661.69;;;4.98;95.18
51099;BME280;37146;48.210;16.234;2023-04-26T04:45:09;98659.16;;;4.95;95.09
51099;BME280;37146;48.210;16.234;2023-04-26T04:47:34;98656.50;;;4.95;93.65
51099;BME280;37146;48.210;16.234;2023-04-26T04:50:01;98656.88;;;5.09;93.32
51099;BME280;37146;48.210;16.234;2023-04-26T04:52:27;98654.63;;;4.97;93.29
51099;BME280;37146;48.210;16.234;2023-04-26T04:54:52;98664.81;;;5.09;93.27
51099;BME280;37146;48.210;16.234;2023-04-26T04:57:17;98663.63;;;5.18;92.92
51099;BME280;37146;48.210;16.234;2023-04-26T04:59:43;98670.13;;;5.09;92.12
51099;BME280;37146;48.210;16.234;2023-04-26T05:02:08;98669.78;;;5.19;92.93
51099;BME280;37146;48.210;16.234;2023-04-26T05:04:33;98673.31;;;5.19;94.53
51099;BME280;37146;48.210;16.234;2023-04-26T05:06:59;98678.56;;;5.21;92.45
51099;BME280;37146;48.210;16.234;2023-04-26T05:09:24;98671.97;;;5.33;91.78
51099;BME280;37146;48.210;16.234;2023-04-26T05:11:49;98671.84;;;5.36;92.18
51099;BME280;37146;48.210;16.234;2023-04-26T05:14:14;98674.88;;;5.50;92.43
51099;BME280;37146;48.210;16.234;2023-04-26T05:16:40;98684.84;;;5.44;92.33
51099;BME280;37146;48.210;16.234;2023-04-26T05:19:05;98684.41;;;5.56;92.13
51099;BME280;37146;48.210;16.234;2023-04-26T05:21:30;98682.75;;;5.52;91.12
51099;BME280;37146;48.210;16.234;2023-04-26T05:23:56;98689.78;;;5.54;90.41
51099;BME280;37146;48.210;16.234;2023-04-26T05:26:21;98684.28;;;5.59;89.11
51099;BME280;37146;48.210;16.234;2023-04-26T05:28:46;98685.56;;;5.72;88.12
51099;BME280;37146;48.210;16.234;2023-04-26T05:31:12;98685.44;;;5.76;87.34
51099;BME280;37146;48.210;16.234;2023-04-26T05:33:37;98692.31;;;5.81;86.87
51099;BME280;37146;48.210;16.234;2023-04-26T05:36:02;98693.75;;;5.90;86.83
51099;BME280;37146;48.210;16.234;2023-04-26T05:38:28;98693.75;;;5.90;85.29
51099;BME280;37146;48.210;16.234;2023-04-26T05:40:54;98704.94;;;6.00;86.07
51099;BME280;37146;48.210;16.234;2023-04-26T05:43:19;98715.06;;;6.12;84.72
51099;BME280;37146;48.210;16.234;2023-04-26T05:45:54;98710.81;;;6.08;82.88
51099;BME280;37146;48.210;16.234;2023-04-26T05:48:19;98703.34;;;6.18;84.65
51099;BME280;37146;48.210;16.234;2023-04-26T05:50:45;98718.03;;;6.28;81.75
51099;BME280;37146;48.210;16.234;2023-04-26T05:53:10;98717.84;;;6.33;83.32
51099;BME280;37146;48.210;16.234;2023-04-26T05:55:36;98720.06;;;6.44;79.51
51099;BME280;37146;48.210;16.234;2023-04-26T05:58:01;98712.09;;;6.44;77.72
51099;BME280;37146;48.210;16.234;2023-04-26T06:00:26;98722.53;;;6.48;78.62
51099;BME280;37146;48.210;16.234;2023-04-26T06:02:51;98735.00;;;6.46;76.87
51099;BME280;37146;48.210;16.234;2023-04-26T06:05:17;98725.88;;;6.54;76.94
51099;BME280;37146;48.210;16.234;2023-04-26T06:07:42;98733.41;;;6.64;76.29
51099;BME280;37146;48.210;16.234;2023-04-26T06:10:08;98729.81;;;6.65;75.06
51099;BME280;37146;48.210;16.234;2023-04-26T06:12:34;98730.19;;;6.78;74.22
51099;BME280;37146;48.210;16.234;2023-04-26T06:14:59;98730.81;;;6.85;73.94
51099;BME280;37146;48.210;16.234;2023-04-26T06:17:24;98745.28;;;6.78;73.04
51099;BME280;37146;48.210;16.234;2023-04-26T06:19:50;98750.22;;;6.87;71.82
51099;BME280;37146;48.210;16.234;2023-04-26T06:22:15;98736.31;;;7.03;72.00
51099;BME280;37146;48.210;16.234;2023-04-26T06:24:40;98741.53;;;7.26;71.66
51099;BME280;37146;48.210;16.234;2023-04-26T06:27:06;98745.94;;;7.48;73.84
51099;BME280;37146;48.210;16.234;2023-04-26T06:29:31;98741.09;;;7.77;68.79
51099;BME280;37146;48.210;16.234;2023-04-26T06:31:56;98742.59;;;8.03;68.87
51099;BME280;37146;48.210;16.234;2023-04-26T06:34:21;98737.75;;;7.93;67.50
51099;BME280;37146;48.210;16.234;2023-04-26T06:36:47;98744.91;;;8.11;66.98
51099;BME280;37146;48.210;16.234;2023-04-26T06:39:12;98742.09;;;8.33;66.67
51099;BME280;37146;48.210;16.234;2023-04-26T06:41:37;98743.59;;;8.60;63.37
51099;BME280;37146;48.210;16.234;2023-04-26T06:44:02;98744.75;;;8.91;63.20
51099;BME280;37146;48.210;16.234;2023-04-26T06:46:28;98743.47;;;8.80;62.09
51099;BME280;37146;48.210;16.234;2023-04-26T06:48:53;98749.53;;;8.84;64.55
51099;BME280;37146;48.210;16.234;2023-04-26T06:51:19;98752.66;;;8.92;62.24
51099;BME280;37146;48.210;16.234;2023-04-26T06:53:44;98747.44;;;8.72;61.26
51099;BME280;37146;48.210;16.234;2023-04-26T06:56:09;98755.72;;;8.46;61.39
51099;BME280;37146;48.210;16.234;2023-04-26T06:58:35;98748.22;;;8.93;61.48
51099;BME280;37146;48.210;16.234;2023-04-26T07:01:00;98744.38;;;9.16;59.86
51099;BME280;37146;48.210;16.234;2023-04-26T07:03:26;98750.19;;;9.07;58.76
51099;BME280;37146;48.210;16.234;2023-04-26T07:05:51;98753.44;;;8.58;60.65
51099;BME280;37146;48.210;16.234;2023-04-26T07:08:16;98758.25;;;9.05;60.09
51099;BME280;37146;48.210;16.234;2023-04-26T07:10:41;98750.44;;;9.55;59.60
51099;BME280;37146;48.210;16.234;2023-04-26T07:13:07;98754.22;;;9.68;59.62
51099;BME280;37146;48.210;16.234;2023-04-26T07:15:32;98749.81;;;9.67;58.08
51099;BME280;37146;48.210;16.234;2023-04-26T07:17:57;98749.31;;;9.06;58.34
51099;BME280;37146;48.210;16.234;2023-04-26T07:20:22;98752.91;;;9.05;59.80
51099;BME280;37146;48.210;16.234;2023-04-26T07:22:48;98753.84;;;8.87;60.81
51099;BME280;37146;48.210;16.234;2023-04-26T07:25:13;98763.53;;;8.70;61.75
51099;BME280;37146;48.210;16.234;2023-04-26T07:27:39;98764.94;;;8.77;61.07
51099;BME280;37146;48.210;16.234;2023-04-26T07:30:04;98762.03;;;9.19;62.56
51099;BME280;37146;48.210;16.234;2023-04-26T07:32:30;98763.78;;;9.37;58.87
51099;BME280;37146;48.210;16.234;2023-04-26T07:34:55;98766.19;;;9.07;60.61
51099;BME280;37146;48.210;16.234;2023-04-26T07:37:20;98767.84;;;9.09;61.19
51099;BME280;37146;48.210;16.234;2023-04-26T07:39:45;98766.38;;;9.39;61.21
51099;BME280;37146;48.210;16.234;2023-04-26T07:42:11;98766.84;;;9.65;60.32
51099;BME280;37146;48.210;16.234;2023-04-26T07:44:36;98752.72;;;10.14;58.61
51099;BME280;37146;48.210;16.234;2023-04-26T07:47:01;98757.88;;;10.50;60.51
51099;BME280;37146;48.210;16.234;2023-04-26T07:49:26;98752.66;;;10.31;56.86
51099;BME280;37146;48.210;16.234;2023-04-26T07:51:52;98761.25;;;9.87;58.49
51099;BME280;37146;48.210;16.234;2023-04-26T07:54:17;98759.88;;;9.44;59.39
51099;BME280;37146;48.210;16.234;2023-04-26T07:56:42;98766.75;;;9.13;59.39
51099;BME280;37146;48.210;16.234;2023-04-26T07:59:07;98768.88;;;9.07;60.03
51099;BME280;37146;48.210;16.234;2023-04-26T08:01:33;98776.50;;;9.15;61.75
51099;BME280;37146;48.210;16.234;2023-04-26T08:03:58;98768.03;;;9.24;61.23
51099;BME280;37146;48.210;16.234;2023-04-26T08:06:23;98761.03;;;8.85;62.14
51099;BME280;37146;48.210;16.234;2023-04-26T08:08:49;98771.72;;;8.65;61.56
51099;BME280;37146;48.210;16.234;2023-04-26T08:11:14;98772.94;;;8.77;65.06
51099;BME280;37146;48.210;16.234;2023-04-26T08:13:40;98777.06;;;8.46;62.75
51099;BME280;37146;48.210;16.234;2023-04-26T08:16:07;98779.19;;;8.59;60.76
51099;BME280;37146;48.210;16.234;2023-04-26T08:18:33;98769.38;;;8.96;61.26
51099;BME280;37146;48.210;16.234;2023-04-26T08:20:58;98765.78;;;8.97;62.57
51099;BME280;37146;48.210;16.234;2023-04-26T08:23:23;98773.31;;;9.06;63.85
51099;BME280;37146;48.210;16.234;2023-04-26T08:25:48;98765.44;;;9.57;59.73
51099;BME280;37146;48.210;16.234;2023-04-26T08:28:14;98765.50;;;9.38;58.64
51099;BME280;37146;48.210;16.234;2023-04-26T08:30:39;98762.03;;;9.19;60.28
51099;BME280;37146;48.210;16.234;2023-04-26T08:33:05;98764.41;;;9.42;60.01
51099;BME280;37146;48.210;16.234;2023-04-26T08:35:30;98764.97;;;10.34;57.11
51099;BME280;37146;48.210;16.234;2023-04-26T08:37:56;98763.06;;;10.86;54.52
51099;BME280;37146;48.210;16.234;2023-04-26T08:40:22;98764.94;;;11.00;53.88
51099;BME280;37146;48.210;16.234;2023-04-26T08:42:51;98760.38;;;11.02;53.67
51099;BME280;37146;48.210;16.234;2023-04-26T08:45:17;98753.84;;;11.22;55.79
51099;BME280;37146;48.210;16.234;2023-04-26T08:47:43;98765.66;;;10.71;56.38
51099;BME280;37146;48.210;16.234;2023-04-26T08:50:13;98768.28;;;10.05;53.15
51099;BME280;37146;48.210;16.234;2023-04-26T08:52:39;98771.22;;;9.13;53.02
51099;BME280;37146;48.210;16.234;2023-04-26T08:55:05;98776.41;;;9.34;56.35
51099;BME280;37146;48.210;16.234;2023-04-26T08:57:31;98777.56;;;9.10;58.37
51099;BME280;37146;48.210;16.234;2023-04-26T08:59:57;98788.59;;;8.85;58.94
51099;BME280;37146;48.210;16.234;2023-04-26T09:02:22;98774.41;;;9.39;57.71
51099;BME280;37146;48.210;16.234;2023-04-26T09:04:48;98772.50;;;10.10;54.93
51099;BME280;37146;48.210;16.234;2023-04-26T09:07:22;98781.44;;;9.93;54.92
51099;BME280;37146;48.210;16.234;2023-04-26T09:09:50;98764.72;;;9.71;56.75
51099;BME280;37146;48.210;16.234;2023-04-26T09:12:18;98770.13;;;9.70;57.72
51099;BME280;37146;48.210;16.234;2023-04-26T09:14:46;98769.28;;;9.52;56.98
51099;BME280;37146;48.210;16.234;2023-04-26T09:17:27;98773.53;;;9.56;56.29
51099;BME280;37146;48.210;16.234;2023-04-26T09:19:52;98770.47;;;9.46;54.55
51099;BME280;37146;48.210;16.234;2023-04-26T09:22:30;98768.50;;;9.15;55.16
51099;BME280;37146;48.210;16.234;2023-04-26T09:24:56;98766.56;;;8.99;56.99
51099;BME280;37146;48.210;16.234;2023-04-26T09:27:23;98763.56;;;8.88;56.90
51099;BME280;37146;48.210;16.234;2023-04-26T09:30:03;98756.53;;;9.04;58.77
51099;BME280;37146;48.210;16.234;2023-04-26T09:33:12;98754.59;;;9.61;55.96
51099;BME280;37146;48.210;16.234;2023-04-26T09:40:17;98736.47;;;12.61;43.75
51099;BME280;37146;48.210;16.234;2023-04-26T09:42:43;98738.44;;;12.44;46.84
51099;BME280;37146;48.210;16.234;2023-04-26T09:45:09;98736.50;;;12.03;47.82
51099;BME280;37146;48.210;16.234;2023-04-26T09:47:34;98746.91;;;11.34;48.83
51099;BME280;37146;48.210;16.234;2023-04-26T09:50:00;98755.84;;;11.02;47.56
51099;BME280;37146;48.210;16.234;2023-04-26T09:52:25;98754.63;;;10.28;48.34
51099;BME280;37146;48.210;16.234;2023-04-26T09:54:53;98753.03;;;10.08;49.25
51099;BME280;37146;48.210;16.234;2023-04-26T09:57:18;98740.59;;;10.06;49.67
51099;BME280;37146;48.210;16.234;2023-04-26T09:59:45;98743.00;;;12.57;44.44
51099;BME280;37146;48.210;16.234;2023-04-26T10:02:20;98728.03;;;14.27;41.76
51099;BME280;37146;48.210;16.234;2023-04-26T10:04:47;98727.38;;;14.10;41.14
51099;BME280;37146;48.210;16.234;2023-04-26T10:07:13;98735.78;;;14.81;37.83
51099;BME280;37146;48.210;16.234;2023-04-26T10:09:39;98730.44;;;15.17;36.81
51099;BME280;37146;48.210;16.234;2023-04-26T10:12:05;98721.38;;;16.01;36.98
51099;BME280;37146;48.210;16.234;2023-04-26T10:14:31;98720.53;;;15.53;36.56
51099;BME280;37146;48.210;16.234;2023-04-26T10:16:56;98727.28;;;16.17;38.06
51099;BME280;37146;48.210;16.234;2023-04-26T10:19:22;98713.91;;;15.57;38.06
51099;BME280;37146;48.210;16.234;2023-04-26T10:21:47;98726.66;;;15.20;37.70
51099;BME280;37146;48.210;16.234;2023-04-26T10:24:13;98725.38;;;13.35;40.30
51099;BME280;37146;48.210;16.234;2023-04-26T10:26:49;98737.84;;;14.65;38.45
51099;BME280;37146;48.210;16.234;2023-04-26T10:29:16;98726.47;;;15.34;36.40
51099;BME280;37146;48.210;16.234;2023-04-26T10:32:03;98720.28;;;16.37;35.60
51099;BME280;37146;48.210;16.234;2023-04-26T10:34:29;98720.63;;;15.99;37.90
51099;BME280;37146;48.210;16.234;2023-04-26T10:37:16;98710.81;;;13.65;40.01
51099;BME280;37146;48.210;16.234;2023-04-26T10:39:44;98724.56;;;14.12;44.23
51099;BME280;37146;48.210;16.234;2023-04-26T10:44:47;98726.66;;;14.71;43.05
51099;BME280;37146;48.210;16.234;2023-04-26T10:47:24;98728.91;;;13.88;41.76
51099;BME280;37146;48.210;16.234;2023-04-26T10:49:50;98727.19;;;15.72;41.24
51099;BME280;37146;48.210;16.234;2023-04-26T10:52:19;98727.25;;;14.12;41.33
51099;BME280;37146;48.210;16.234;2023-04-26T10:57:10;98725.16;;;13.38;44.26
51099;BME280;37146;48.210;16.234;2023-04-26T10:59:36;98722.97;;;13.70;42.29
51099;BME280;37146;48.210;16.234;2023-04-26T11:02:01;98721.19;;;12.76;43.69
51099;BME280;37146;48.210;16.234;2023-04-26T11:04:49;98710.41;;;12.90;43.16
51099;BME280;37146;48.210;16.234;2023-04-26T11:07:12;98715.50;;;14.38;42.25
51099;BME280;37146;48.210;16.234;2023-04-26T11:09:38;98713.50;;;13.11;41.57
51099;BME280;37146;48.210;16.234;2023-04-26T11:12:14;98717.19;;;12.12;44.23
51099;BME280;37146;48.210;16.234;2023-04-26T11:14:40;98711.44;;;12.04;45.28
51099;BME280;37146;48.210;16.234;2023-04-26T11:17:06;98716.50;;;14.25;43.42
51099;BME280;37146;48.210;16.234;2023-04-26T11:19:32;98718.69;;;13.27;44.90
51099;BME280;37146;48.210;16.234;2023-04-26T11:21:58;98719.84;;;14.02;43.78
51099;BME280;37146;48.210;16.234;2023-04-26T11:24:26;98711.47;;;13.68;44.41
51099;BME280;37146;48.210;16.234;2023-04-26T11:26:52;98705.00;;;14.73;41.96
51099;BME280;37146;48.210;16.234;2023-04-26T11:29:20;98698.94;;;15.42;40.72
51099;BME280;37146;48.210;16.234;2023-04-26T11:31:57;98692.38;;;15.22;39.62
51099;BME280;37146;48.210;16.234;2023-04-26T11:34:30;98693.94;;;15.13;39.75
51099;BME280;37146;48.210;16.234;2023-04-26T11:36:55;98693.88;;;15.02;39.38
51099;BME280;37146;48.210;16.234;2023-04-26T11:39:20;98697.84;;;15.09;40.63
51099;BME280;37146;48.210;16.234;2023-04-26T11:41:46;98695.16;;;12.91;43.29
51099;BME280;37146;48.210;16.234;2023-04-26T11:44:11;98698.38;;;12.83;44.12
51099;BME280;37146;48.210;16.234;2023-04-26T11:46:37;98699.34;;;13.22;42.38
51099;BME280;37146;48.210;16.234;2023-04-26T11:49:02;98703.31;;;12.89;43.08
51099;BME280;37146;48.210;16.234;2023-04-26T11:51:27;98716.78;;;12.33;43.83
51099;BME280;37146;48.210;16.234;2023-04-26T11:53:54;98708.91;;;11.72;44.62
51099;BME280;37146;48.210;16.234;2023-04-26T11:56:19;98717.94;;;12.14;44.62
51099;BME280;37146;48.210;16.234;2023-04-26T11:58:46;98713.09;;;13.30;43.67
51099;BME280;37146;48.210;16.234;2023-04-26T12:01:11;98710.84;;;15.86;37.98
51099;BME280;37146;48.210;16.234;2023-04-26T12:03:48;98708.75;;;15.19;38.45
51099;BME280;37146;48.210;16.234;2023-04-26T12:06:13;98696.75;;;15.11;37.97
51099;BME280;37146;48.210;16.234;2023-04-26T12:08:39;98695.91;;;15.22;39.07
51099;BME280;37146;48.210;16.234;2023-04-26T12:11:04;98687.88;;;14.74;37.87
51099;BME280;37146;48.210;16.234;2023-04-26T12:13:29;98704.09;;;14.85;37.62
51099;BME280;37146;48.210;16.234;2023-04-26T12:15:55;98699.28;;;14.77;39.62
51099;BME280;37146;48.210;16.234;2023-04-26T12:18:21;98687.00;;;15.80;36.75
51099;BME280;37146;48.210;16.234;2023-04-26T12:20:47;98692.88;;;15.15;38.50
51099;BME280;37146;48.210;16.234;2023-04-26T12:23:13;98682.38;;;14.25;37.06
51099;BME280;37146;48.210;16.234;2023-04-26T12:25:39;98688.56;;;14.14;40.54
51099;BME280;37146;48.210;16.234;2023-04-26T12:28:08;98692.34;;;13.60;41.34
51099;BME280;37146;48.210;16.234;2023-04-26T12:30:36;98695.25;;;13.17;41.31
51099;BME280;37146;48.210;16.234;2023-04-26T12:33:01;98696.13;;;13.17;41.99
51099;BME280;37146;48.210;16.234;2023-04-26T12:35:27;98684.88;;;12.43;43.90
51099;BME280;37146;48.210;16.234;2023-04-26T12:37:53;98694.28;;;12.35;42.83
51099;BME280;37146;48.210;16.234;2023-04-26T12:40:20;98702.63;;;12.16;43.67
51099;BME280;37146;48.210;16.234;2023-04-26T12:42:46;98693.88;;;12.42;43.84
51099;BME280;37146;48.210;16.234;2023-04-26T12:45:11;98689.03;;;12.19;42.84
51099;BME280;37146;48.210;16.234;2023-04-26T12:47:37;98695.69;;;12.56;42.44
51099;BME280;37146;48.210;16.234;2023-04-26T12:50:02;98695.13;;;11.93;43.33
51099;BME280;37146;48.210;16.234;2023-04-26T12:52:29;98690.63;;;11.79;43.78
51099;BME280;37146;48.210;16.234;2023-04-26T12:54:54;98691.88;;;11.73;45.00
51099;BME280;37146;48.210;16.234;2023-04-26T12:57:19;98690.69;;;11.34;43.91
51099;BME280;37146;48.210;16.234;2023-04-26T12:59:45;98683.63;;;11.62;43.03
51099;BME280;37146;48.210;16.234;2023-04-26T13:02:11;98695.00;;;11.36;44.09
51099;BME280;37146;48.210;16.234;2023-04-26T13:04:36;98696.16;;;11.16;44.80
51099;BME280;37146;48.210;16.234;2023-04-26T13:07:02;98700.22;;;11.23;46.97
51099;BME280;37146;48.210;16.234;2023-04-26T13:09:27;98694.38;;;11.31;46.32
51099;BME280;37146;48.210;16.234;2023-04-26T13:11:52;98692.22;;;11.38;46.40
51099;BME280;37146;48.210;16.234;2023-04-26T13:14:18;98696.06;;;11.63;45.57
51099;BME280;37146;48.210;16.234;2023-04-26T13:16:43;98701.72;;;11.58;45.20
51099;BME280;37146;48.210;16.234;2023-04-26T13:19:09;98714.44;;;11.54;45.74
51099;BME280;37146;48.210;16.234;2023-04-26T13:21:34;98707.88;;;11.29;46.66
51099;BME280;37146;48.210;16.234;2023-04-26T13:24:00;98711.28;;;11.48;46.79